Time;durP1;ratioP1;P1;durP2;ratioP2;P2;SDS_P1;SDS_P2;PMS_P1;PMS_P2;Temp;Humidity;BMP_temperature;BMP_pressure;BME280_temperature;BME280_humidity;BME280_pressure;Samples;Min_cycle;Max_cycle;Signal;HPM_P1;HPM_P2
2023/08/31 00:01:12;;;;;;;4.35;2.80;;;;;;;21.19;63.04;94113.53;5051487;28;20214;-43
2023/08/31 00:03:39;;;;;;;3.92;2.42;;;;;;;21.26;62.89;94120.25;5051134;28;20199;-45
2023/08/31 00:06:07;;;;;;;4.70;2.70;;;;;;;21.22;63.12;94116.47;5051605;28;20675;-43
2023/08/31 00:08:36;;;;;;;3.38;2.50;;;;;;;21.05;63.10;94099.88;5051207;28;20198;-43
2023/08/31 00:11:02;;;;;;;4.25;2.35;;;;;;;21.23;63.26;94125.06;5051286;28;20202;-45
2023/08/31 00:13:29;;;;;;;4.20;2.38;;;;;;;21.23;63.26;94125.06;5051195;28;20674;-44
2023/08/31 00:15:58;;;;;;;4.38;2.35;;;;;;;21.22;63.26;94124.28;5050892;28;20194;-45
2023/08/31 00:18:25;;;;;;;4.68;2.55;;;;;;;21.19;63.31;94122.09;5051120;28;20399;-43
2023/08/31 00:20:52;;;;;;;3.60;2.30;;;;;;;21.14;63.38;94118.59;5051103;28;20191;-42
2023/08/31 00:23:19;;;;;;;3.50;2.78;;;;;;;21.13;63.52;94115.19;5051732;28;20277;-43
2023/08/31 00:25:48;;;;;;;4.95;2.58;;;;;;;21.12;63.64;94125.81;5050134;28;20306;-43
2023/08/31 00:28:18;;;;;;;3.20;2.10;;;;;;;21.07;63.83;94129.06;5050906;28;20191;-44
2023/08/31 00:30:45;;;;;;;5.65;2.60;;;;;;;21.03;64.17;94125.31;5050813;28;20315;-45
2023/08/31 00:33:12;;;;;;;3.33;2.28;;;;;;;20.89;64.29;94109.03;5051421;28;20183;-43
2023/08/31 00:35:42;;;;;;;4.05;2.72;;;;;;;21.00;64.39;94131.72;5050703;28;20183;-43
2023/08/31 00:38:09;;;;;;;3.47;2.30;;;;;;;20.96;64.43;94134.97;5050915;28;20202;-45
2023/08/31 00:40:40;;;;;;;2.25;2.05;;;;;;;20.97;64.61;94133.94;5050056;28;20287;-45
2023/08/31 00:43:11;;;;;;;5.78;2.35;;;;;;;20.94;64.58;94136.97;5051212;28;20266;-45
2023/08/31 00:45:40;;;;;;;5.28;2.50;;;;;;;20.94;64.78;94137.78;5050425;28;20252;-44
2023/08/31 00:48:08;;;;;;;4.57;2.65;;;;;;;20.93;64.74;94140.59;5050797;28;20195;-43
2023/08/31 00:50:35;;;;;;;3.42;2.38;;;;;;;20.98;65.03;94141.56;5050598;28;20183;-42
2023/08/31 00:53:03;;;;;;;3.63;2.17;;;;;;;20.98;64.99;94145.94;5050596;28;20677;-45
2023/08/31 00:55:30;;;;;;;8.48;2.63;;;;;;;20.95;65.14;94141.97;5050360;28;20191;-42
2023/08/31 00:57:56;;;;;;;6.88;2.47;;;;;;;20.96;65.19;94147.97;5050956;28;20527;-43
2023/08/31 01:00:30;;;;;;;4.20;2.75;;;;;;;20.97;65.41;94142.53;5051056;28;20183;-43
2023/08/31 01:03:09;;;;;;;4.28;2.22;;;;;;;20.99;65.18;94143.13;5050494;28;20199;-43
2023/08/31 01:05:47;;;;;;;3.40;2.30;;;;;;;20.97;65.37;94144.34;5049991;28;20610;-43
2023/08/31 01:08:26;;;;;;;5.30;2.75;;;;;;;20.97;65.47;94152.94;5050389;28;20203;-43
2023/08/31 01:11:05;;;;;;;4.60;2.63;;;;;;;20.98;65.43;94144.16;5050529;28;20202;-42
2023/08/31 01:13:33;;;;;;;5.93;2.95;;;;;;;20.97;65.45;94147.75;5050341;28;20226;-44
2023/08/31 01:16:06;;;;;;;5.03;2.92;;;;;;;21.02;65.14;94154.91;5049940;28;20205;-45
2023/08/31 01:18:35;;;;;;;3.70;2.75;;;;;;;21.06;65.36;94153.47;5050564;28;20205;-43
2023/08/31 01:21:12;;;;;;;4.10;2.58;;;;;;;21.09;65.27;94157.44;5050263;28;20219;-44
2023/08/31 01:23:59;;;;;;;4.43;2.72;;;;;;;21.10;65.27;94159.81;5050320;28;20194;-43
2023/08/31 01:26:26;;;;;;;6.18;2.55;;;;;;;21.11;65.21;94152.81;5051460;28;20222;-43
2023/08/31 01:28:54;;;;;;;5.00;2.40;;;;;;;21.13;64.91;94153.41;5050044;28;20230;-42
2023/08/31 01:31:21;;;;;;;2.58;2.13;;;;;;;21.13;64.95;94148.19;5049650;28;20194;-44
2023/08/31 01:34:35;;;;;;;3.50;2.55;;;;;;;21.14;65.24;94150.56;5049748;28;20427;-44
2023/08/31 01:37:09;;;;;;;3.97;2.05;;;;;;;21.12;65.45;94157.03;5049385;28;20281;-43
2023/08/31 01:39:43;;;;;;;4.80;2.42;;;;;;;21.09;65.38;94152.25;5049375;28;20697;-43
2023/08/31 01:42:16;;;;;;;4.53;2.30;;;;;;;21.01;65.88;94145.50;5049873;28;20257;-43
2023/08/31 01:44:49;;;;;;;6.28;2.65;;;;;;;21.03;65.74;94149.50;5032678;28;20190;-43
2023/08/31 01:47:17;;;;;;;2.42;1.92;;;;;;;20.99;65.88;94148.34;5049535;28;20230;-43
2023/08/31 01:49:44;;;;;;;8.82;3.00;;;;;;;20.96;66.04;94147.97;5049196;28;20270;-42
2023/08/31 01:52:11;;;;;;;4.85;2.60;;;;;;;20.90;66.52;94154.81;5049814;28;20191;-43
2023/08/31 01:54:39;;;;;;;5.47;2.60;;;;;;;20.94;66.95;94150.78;5049561;28;20190;-42
2023/08/31 01:57:06;;;;;;;3.78;2.45;;;;;;;20.87;66.81;94155.25;5049672;28;20221;-44
2023/08/31 01:59:33;;;;;;;5.45;2.50;;;;;;;20.83;66.92;94156.69;5049311;28;20277;-43
2023/08/31 02:02:00;;;;;;;4.47;2.72;;;;;;;20.79;67.27;94155.53;5049520;28;20198;-42
2023/08/31 02:04:27;;;;;;;4.03;2.65;;;;;;;20.70;67.48;94164.59;5049560;28;20187;-43
2023/08/31 02:06:54;;;;;;;5.57;2.50;;;;;;;20.67;67.75;94172.81;5049223;28;20837;-44
2023/08/31 02:09:21;;;;;;;5.05;2.70;;;;;;;20.64;67.93;94176.66;5048981;28;20191;-44
2023/08/31 02:11:49;;;;;;;5.07;2.67;;;;;;;20.60;68.13;94180.66;5049504;28;20199;-41
2023/08/31 02:14:16;;;;;;;4.55;2.88;;;;;;;20.58;68.22;94182.66;5049477;28;20187;-42
2023/08/31 02:16:42;;;;;;;4.80;2.70;;;;;;;20.53;68.39;94172.13;5049459;28;20202;-44
2023/08/31 02:19:09;;;;;;;4.05;2.60;;;;;;;20.49;68.56;94174.34;5049039;28;20187;-43
2023/08/31 02:21:36;;;;;;;3.97;2.65;;;;;;;20.43;68.79;94175.16;5049302;28;20194;-45
2023/08/31 02:24:03;;;;;;;4.05;2.65;;;;;;;20.37;68.91;94178.59;5049218;28;20191;-44
2023/08/31 02:26:30;;;;;;;7.40;2.75;;;;;;;20.35;68.85;94178.03;5048744;28;20706;-45
2023/08/31 02:28:58;;;;;;;4.97;2.78;;;;;;;20.34;69.07;94170.44;5049039;28;20288;-42
2023/08/31 02:31:25;;;;;;;3.63;2.55;;;;;;;20.24;69.05;94163.91;5048887;28;20195;-43
2023/08/31 02:33:52;;;;;;;3.03;2.20;;;;;;;20.27;69.28;94165.28;5049071;28;20197;-43
2023/08/31 02:36:20;;;;;;;3.70;2.58;;;;;;;20.24;69.39;94170.91;5048793;28;20285;-43
2023/08/31 02:38:49;;;;;;;3.75;2.80;;;;;;;20.22;69.44;94170.31;5049186;28;20202;-43
2023/08/31 02:41:16;;;;;;;5.85;3.08;;;;;;;20.17;69.68;94164.97;5048862;28;20195;-42
2023/08/31 02:43:43;;;;;;;2.85;2.40;;;;;;;20.15;69.91;94172.16;5048979;28;20193;-44
2023/08/31 02:46:11;;;;;;;4.40;2.40;;;;;;;20.13;69.82;94168.97;5049074;28;20245;-42
2023/08/31 02:48:39;;;;;;;3.37;2.40;;;;;;;20.11;69.59;94166.56;5050142;28;20214;-43
2023/08/31 02:51:05;;;;;;;5.07;2.53;;;;;;;20.10;69.44;94169.41;5052809;28;20191;-43
2023/08/31 02:53:32;;;;;;;3.80;2.90;;;;;;;20.08;69.11;94163.59;5052798;28;20248;-43
2023/08/31 02:55:59;;;;;;;6.85;2.72;;;;;;;20.05;69.01;94176.00;5052992;28;20240;-44
2023/08/31 02:58:26;;;;;;;4.75;2.58;;;;;;;20.04;69.09;94187.41;5053152;28;20225;-42
2023/08/31 03:00:53;;;;;;;4.72;2.65;;;;;;;20.04;69.15;94191.78;5052298;28;20663;-43
2023/08/31 03:03:21;;;;;;;5.50;2.87;;;;;;;20.02;69.09;94186.00;5034572;28;20617;-44
2023/08/31 03:05:48;;;;;;;4.55;2.38;;;;;;;19.97;69.11;94184.03;5052784;28;20308;-43
2023/08/31 03:08:15;;;;;;;8.35;2.78;;;;;;;19.93;69.15;94192.44;5052786;28;20195;-43
2023/08/31 03:10:41;;;;;;;4.03;3.10;;;;;;;19.97;69.29;94197.00;5052404;28;20187;-42
2023/08/31 03:13:08;;;;;;;6.82;2.78;;;;;;;19.97;69.55;94198.81;5052220;28;20191;-43
2023/08/31 03:15:35;;;;;;;3.63;2.38;;;;;;;19.93;69.42;94193.25;5052402;28;20195;-43
2023/08/31 03:18:02;;;;;;;5.95;2.72;;;;;;;19.92;69.56;94202.03;5052448;28;20720;-43
2023/08/31 03:20:30;;;;;;;7.60;2.85;;;;;;;19.89;69.76;94205.03;5053115;28;20237;-43
2023/08/31 03:22:57;;;;;;;7.72;3.25;;;;;;;19.86;69.96;94200.28;5052576;28;20191;-44
2023/08/31 03:25:24;;;;;;;6.38;3.13;;;;;;;19.84;70.31;94201.47;5052583;28;20194;-43
2023/08/31 03:27:50;;;;;;;4.67;2.83;;;;;;;19.82;70.47;94193.09;5052023;28;20211;-43
2023/08/31 03:30:17;;;;;;;5.50;2.65;;;;;;;19.77;70.52;94189.34;5052229;28;20285;-43
2023/08/31 03:32:44;;;;;;;4.57;2.55;;;;;;;19.77;70.29;94193.69;5052304;28;20206;-43
2023/08/31 03:35:11;;;;;;;8.40;3.60;;;;;;;19.72;70.43;94183.16;5052040;28;20237;-42
2023/08/31 03:37:39;;;;;;;3.88;3.08;;;;;;;19.72;70.65;94196.91;5052064;28;20633;-43
2023/08/31 03:40:07;;;;;;;5.87;2.80;;;;;;;19.72;70.83;94198.72;5052070;28;20198;-43
2023/08/31 03:42:35;;;;;;;4.97;2.60;;;;;;;19.65;71.10;94195.38;5052195;28;20215;-42
2023/08/31 03:45:03;;;;;;;3.97;2.92;;;;;;;19.69;71.34;94206.91;5051554;28;20187;-44
2023/08/31 03:47:30;;;;;;;4.03;2.72;;;;;;;19.69;71.40;94207.72;5051700;28;20215;-41
2023/08/31 03:49:56;;;;;;;6.53;3.22;;;;;;;19.70;71.19;94211.91;5051649;28;20583;-44
2023/08/31 03:52:23;;;;;;;6.47;3.10;;;;;;;19.69;71.24;94210.31;5051789;28;20195;-44
2023/08/31 03:54:52;;;;;;;7.25;2.92;;;;;;;19.66;71.62;94210.72;5052010;28;20190;-42
2023/08/31 03:57:20;;;;;;;5.88;2.78;;;;;;;19.69;71.55;94212.09;5047757;28;20183;-42
2023/08/31 03:59:46;;;;;;;5.30;2.70;;;;;;;19.74;71.53;94217.50;5050411;28;20605;-45
2023/08/31 04:02:13;;;;;;;7.05;3.28;;;;;;;19.73;71.69;94221.88;5051557;28;20187;-44
2023/08/31 04:04:40;;;;;;;6.63;3.23;;;;;;;19.71;71.88;94226.47;5051289;28;20195;-45
2023/08/31 04:07:07;;;;;;;4.35;3.22;;;;;;;19.74;71.83;94236.44;5051775;28;20238;-44
2023/08/31 04:09:34;;;;;;;5.30;2.93;;;;;;;19.76;71.77;94252.59;5051393;28;20206;-43
2023/08/31 04:12:02;;;;;;;4.60;2.80;;;;;;;19.83;71.88;94259.56;5031884;28;20258;-43
2023/08/31 04:14:29;;;;;;;4.68;2.72;;;;;;;19.87;71.64;94260.75;5031521;28;20647;-43
2023/08/31 04:16:55;;;;;;;6.47;3.03;;;;;;;19.71;71.67;94231.66;5031462;28;20207;-43
2023/08/31 04:19:22;;;;;;;8.97;3.90;;;;;;;19.94;71.67;94261.50;5031601;28;20857;-43
2023/08/31 04:21:49;;;;;;;6.68;4.05;;;;;;;19.97;71.39;94263.69;5030856;28;20194;-45
2023/08/31 04:24:16;;;;;;;5.00;3.55;;;;;;;20.01;71.59;94272.66;5031582;28;20494;-45
2023/08/31 04:26:44;;;;;;;11.37;4.53;;;;;;;20.05;71.38;94268.66;5049365;28;20706;-45
2023/08/31 04:29:12;;;;;;;7.70;3.75;;;;;;;20.13;71.43;94271.03;5050570;28;20281;-43
2023/08/31 04:31:40;;;;;;;8.13;3.90;;;;;;;20.23;71.07;94273.97;5044827;28;20293;-43
2023/08/31 04:34:07;;;;;;;6.15;3.63;;;;;;;20.34;70.82;94274.34;5051331;28;20363;-44
2023/08/31 04:36:34;;;;;;;5.15;3.63;;;;;;;20.39;70.67;94280.47;5050653;28;20710;-44
2023/08/31 04:39:02;;;;;;;7.22;4.35;;;;;;;20.46;70.51;94280.44;5049110;28;20265;-43
2023/08/31 04:41:30;;;;;;;7.50;3.80;;;;;;;20.59;70.23;94282.19;5042974;28;20221;-43
2023/08/31 04:43:57;;;;;;;14.55;4.00;;;;;;;20.69;69.88;94282.53;5030787;28;20608;-43
2023/08/31 04:46:25;;;;;;;9.45;3.95;;;;;;;20.79;69.56;94293.25;5041400;28;20690;-42
2023/08/31 04:48:52;;;;;;;9.20;4.15;;;;;;;20.86;69.31;94293.22;5049755;28;20562;-44
2023/08/31 04:51:32;;;;;;;7.55;4.22;;;;;;;20.86;69.51;94291.41;5031238;28;20216;-43
2023/08/31 04:53:59;;;;;;;3.80;3.17;;;;;;;20.99;69.14;94295.72;5031769;28;20191;-44
2023/08/31 04:56:26;;;;;;;9.65;3.45;;;;;;;21.04;68.75;94288.88;5031158;28;20196;-44
2023/08/31 04:58:56;;;;;;;9.10;3.67;;;;;;;21.14;68.32;94288.41;5030532;28;20191;-43
2023/08/31 05:01:27;;;;;;;6.75;3.63;;;;;;;21.24;68.02;94293.09;5031107;28;20211;-45
2023/08/31 05:03:54;;;;;;;8.30;3.55;;;;;;;21.31;67.69;94291.25;5030567;28;20192;-43
2023/08/31 05:06:21;;;;;;;9.73;3.28;;;;;;;21.36;67.13;94301.06;5030462;28;20227;-43
2023/08/31 05:08:48;;;;;;;4.15;3.30;;;;;;;21.47;66.86;94302.97;5037166;28;20249;-42
2023/08/31 05:11:14;;;;;;;5.97;3.60;;;;;;;21.52;66.51;94303.91;5041465;28;20203;-43
2023/08/31 05:13:42;;;;;;;6.85;3.45;;;;;;;21.61;66.20;94303.63;5042131;28;20202;-42
2023/08/31 05:16:09;;;;;;;9.43;4.05;;;;;;;21.72;66.60;94301.13;5043993;28;20241;-45
2023/08/31 05:18:37;;;;;;;4.72;3.03;;;;;;;21.93;66.20;94301.69;5043524;28;20191;-42
2023/08/31 05:21:04;;;;;;;7.82;3.40;;;;;;;22.18;65.24;94302.41;5029890;28;20552;-42
2023/08/31 05:23:31;;;;;;;6.53;3.28;;;;;;;22.50;63.88;94303.03;5029120;28;20223;-42
2023/08/31 05:25:58;;;;;;;7.05;3.00;;;;;;;22.90;62.81;94297.28;5044506;28;20183;-44
2023/08/31 05:28:25;;;;;;;5.72;2.97;;;;;;;23.33;61.46;94293.59;5029204;28;20215;-44
2023/08/31 05:30:58;;;;;;;4.78;3.15;;;;;;;23.66;61.15;94284.41;5049219;28;20248;-42
2023/08/31 05:33:28;;;;;;;7.10;3.03;;;;;;;23.97;58.87;94291.88;5049052;28;20627;-43
2023/08/31 05:35:56;;;;;;;12.63;3.22;;;;;;;24.23;57.59;94292.41;5048953;28;20198;-44
2023/08/31 05:38:23;;;;;;;8.23;3.28;;;;;;;24.50;55.91;94293.47;5047642;28;20222;-43
2023/08/31 05:40:50;;;;;;;3.17;2.50;;;;;;;24.76;54.02;94297.31;5047885;28;20271;-44
2023/08/31 05:43:17;;;;;;;6.38;2.42;;;;;;;25.00;53.05;94299.81;5048916;28;20202;-43
2023/08/31 05:45:44;;;;;;;4.20;2.30;;;;;;;25.16;52.53;94293.81;5049049;28;20186;-44
2023/08/31 05:48:11;;;;;;;7.28;2.55;;;;;;;24.95;52.62;94242.16;5048805;28;20226;-44
2023/08/31 05:50:37;;;;;;;5.13;2.53;;;;;;;25.53;52.48;94296.75;5048571;28;20187;-44
2023/08/31 05:53:07;;;;;;;4.90;2.20;;;;;;;25.62;50.98;94298.94;5048775;28;20233;-42
2023/08/31 05:55:34;;;;;;;3.72;3.00;;;;;;;25.61;51.21;94302.63;5029522;28;20274;-43
2023/08/31 05:58:02;;;;;;;3.15;2.58;;;;;;;25.80;50.61;94293.47;5048637;28;20578;-44
2023/08/31 06:00:29;;;;;;;4.03;2.35;;;;;;;25.84;49.98;94297.19;5049364;28;20191;-42
2023/08/31 06:02:56;;;;;;;4.50;2.47;;;;;;;25.87;49.64;94301.94;5034546;28;20195;-44
2023/08/31 06:05:23;;;;;;;8.80;3.28;;;;;;;26.00;49.54;94301.59;5029692;28;20199;-42
2023/08/31 06:07:49;;;;;;;5.78;2.45;;;;;;;26.05;48.75;94303.47;5029570;28;20223;-44
2023/08/31 06:10:18;;;;;;;7.93;3.28;;;;;;;25.81;49.82;94316.00;5030068;28;20195;-43
2023/08/31 06:12:46;;;;;;;3.40;2.30;;;;;;;25.88;49.42;94314.00;5034080;28;20574;-41
2023/08/31 06:15:13;;;;;;;6.88;2.50;;;;;;;25.95;49.03;94314.63;5049812;28;20191;-45
2023/08/31 06:17:39;;;;;;;6.82;2.20;;;;;;;26.06;49.31;94314.75;5049669;28;20183;-43
2023/08/31 06:20:08;;;;;;;5.35;2.05;;;;;;;26.22;49.25;94317.31;5049748;28;20285;-43
2023/08/31 06:22:35;;;;;;;4.88;2.45;;;;;;;26.28;48.24;94324.19;5046379;28;20195;-42
2023/08/31 06:25:02;;;;;;;8.00;3.00;;;;;;;26.19;48.20;94317.00;5033511;28;20214;-46
2023/08/31 06:27:30;;;;;;;5.50;2.60;;;;;;;26.45;47.86;94329.41;5033537;28;20626;-44
2023/08/31 06:29:59;;;;;;;4.93;1.98;;;;;;;26.63;47.63;94330.91;5033427;28;20223;-44
2023/08/31 06:32:27;;;;;;;2.97;2.45;;;;;;;26.81;47.97;94326.38;5035813;28;20187;-45
2023/08/31 06:34:54;;;;;;;4.75;2.88;;;;;;;27.13;47.11;94337.75;5053342;28;20187;-44
2023/08/31 06:37:21;;;;;;;9.63;3.45;;;;;;;27.23;46.79;94335.19;5053120;28;20205;-42
2023/08/31 06:39:48;;;;;;;6.95;3.00;;;;;;;27.26;46.86;94341.78;5053449;28;20197;-44
2023/08/31 06:42:15;;;;;;;7.03;3.10;;;;;;;27.33;47.25;94337.13;5053332;28;20194;-44
2023/08/31 06:44:43;;;;;;;6.40;2.90;;;;;;;27.63;46.17;94357.56;5053252;28;20190;-43
2023/08/31 06:47:10;;;;;;;7.10;2.97;;;;;;;27.75;45.68;94350.31;5053146;28;20311;-45
2023/08/31 06:49:37;;;;;;;7.03;2.90;;;;;;;27.66;45.14;94349.16;5053096;28;20240;-46
2023/08/31 06:52:07;;;;;;;3.42;2.50;;;;;;;27.58;45.70;94351.47;5052801;28;20567;-45
2023/08/31 06:54:34;;;;;;;3.15;2.47;;;;;;;27.64;45.39;94348.66;5053370;28;20199;-44
2023/08/31 06:57:01;;;;;;;8.98;3.00;;;;;;;27.82;45.51;94350.09;5052880;28;20211;-45
2023/08/31 06:59:28;;;;;;;4.68;3.20;;;;;;;27.88;45.14;94356.97;5053138;28;20199;-45
2023/08/31 07:01:56;;;;;;;4.50;2.58;;;;;;;27.71;45.03;94345.78;5053198;28;20187;-45
2023/08/31 07:04:22;;;;;;;8.77;3.97;;;;;;;27.91;45.58;94350.41;5053168;28;20194;-47
2023/08/31 07:06:50;;;;;;;9.82;3.60;;;;;;;28.08;45.44;94350.25;5053575;28;20191;-46
2023/08/31 07:09:17;;;;;;;6.53;2.75;;;;;;;28.10;44.50;94359.44;5052564;28;20201;-44
2023/08/31 07:11:44;;;;;;;6.57;3.00;;;;;;;28.15;44.68;94359.50;5052549;28;20251;-44
2023/08/31 07:14:11;;;;;;;6.57;2.58;;;;;;;28.01;43.48;94350.47;5052872;28;20191;-45
2023/08/31 07:16:37;;;;;;;4.80;2.38;;;;;;;27.94;43.64;94344.66;5052496;28;20203;-45
2023/08/31 07:19:06;;;;;;;3.05;2.38;;;;;;;27.97;43.54;94352.81;5052433;28;20198;-44
2023/08/31 07:21:32;;;;;;;5.72;2.63;;;;;;;28.07;42.95;94352.09;5052507;28;20194;-45
2023/08/31 07:23:59;;;;;;;5.05;2.58;;;;;;;28.23;42.59;94359.00;5052193;28;20701;-45
2023/08/31 07:26:26;;;;;;;4.90;2.67;;;;;;;28.30;42.00;94358.78;5052340;28;20187;-44
2023/08/31 07:28:53;;;;;;;4.88;2.45;;;;;;;28.37;42.54;94358.56;5052094;28;20241;-44
2023/08/31 07:31:19;;;;;;;3.50;2.25;;;;;;;28.58;42.53;94357.59;5052441;28;20301;-45
2023/08/31 07:33:46;;;;;;;5.32;2.78;;;;;;;28.84;41.32;94357.66;5052055;28;20593;-43
2023/08/31 07:36:15;;;;;;;5.03;2.10;;;;;;;28.84;41.34;94339.22;5052049;28;20195;-44
2023/08/31 07:38:42;;;;;;;10.25;2.15;;;;;;;29.13;41.18;94361.44;5052660;28;20195;-45
2023/08/31 07:41:08;;;;;;;5.65;2.08;;;;;;;29.54;40.89;94371.22;5051994;28;20615;-44
2023/08/31 07:43:35;;;;;;;3.72;2.40;;;;;;;29.81;40.10;94369.13;5052743;28;20578;-43
2023/08/31 07:46:02;;;;;;;4.93;2.92;;;;;;;29.94;40.28;94365.16;5051858;28;20552;-45
2023/08/31 07:48:29;;;;;;;3.45;2.00;;;;;;;30.02;38.58;94369.88;5052454;28;20207;-42
2023/08/31 07:50:56;;;;;;;6.45;2.90;;;;;;;30.07;38.70;94371.72;5051691;28;20281;-47
2023/08/31 07:53:25;;;;;;;3.13;2.15;;;;;;;30.09;37.87;94370.38;5051839;28;20662;-45
2023/08/31 07:55:54;;;;;;;3.90;2.28;;;;;;;30.03;38.71;94365.41;5051486;28;20195;-42
2023/08/31 07:58:21;;;;;;;2.88;2.05;;;;;;;30.15;38.58;94360.66;5051983;28;20187;-44
2023/08/31 08:00:47;;;;;;;3.13;2.25;;;;;;;30.51;38.52;94373.72;5051393;28;20179;-51
2023/08/31 08:03:14;;;;;;;5.72;2.38;;;;;;;30.56;37.80;94373.69;5052167;28;20206;-44
2023/08/31 08:05:41;;;;;;;5.45;2.17;;;;;;;30.70;37.47;94377.31;5051435;28;20188;-43
2023/08/31 08:08:08;;;;;;;7.22;3.00;;;;;;;30.84;37.24;94377.56;5051378;28;20734;-45
2023/08/31 08:10:37;;;;;;;4.22;2.58;;;;;;;30.97;37.14;94379.63;5051449;28;20191;-44
2023/08/31 08:13:04;;;;;;;9.02;3.08;;;;;;;31.12;36.42;94376.88;5051828;28;20221;-45
2023/08/31 08:15:31;;;;;;;4.45;2.80;;;;;;;31.14;36.22;94379.25;5051680;28;20191;-44
2023/08/31 08:17:58;;;;;;;4.28;2.95;;;;;;;31.21;36.26;94383.13;5051132;28;20328;-46
2023/08/31 08:20:25;;;;;;;11.18;3.13;;;;;;;31.21;36.71;94379.72;5051307;28;20203;-44
2023/08/31 08:22:52;;;;;;;4.00;2.90;;;;;;;31.20;37.09;94378.13;5051070;28;20191;-45
2023/08/31 08:25:20;;;;;;;6.53;2.47;;;;;;;31.28;37.08;94376.78;5051434;28;20353;-45
2023/08/31 08:27:48;;;;;;;6.03;3.35;;;;;;;31.41;35.69;94368.25;5051035;28;20315;-44
2023/08/31 08:30:15;;;;;;;7.30;3.92;;;;;;;31.41;35.74;94369.03;5051329;28;20707;-44
2023/08/31 08:32:42;;;;;;;6.10;4.00;;;;;;;31.56;33.91;94378.69;5051025;28;20297;-44
2023/08/31 08:35:09;;;;;;;9.43;4.15;;;;;;;31.43;33.45;94374.03;5050993;28;20202;-44
2023/08/31 08:37:36;;;;;;;5.93;4.00;;;;;;;31.32;33.98;94351.41;5051003;28;20203;-45
2023/08/31 08:40:03;;;;;;;5.13;3.35;;;;;;;31.49;33.93;94365.03;5051039;28;20198;-44
2023/08/31 08:42:31;;;;;;;5.10;3.80;;;;;;;31.75;33.85;94372.75;5050697;28;20291;-44
2023/08/31 08:45:00;;;;;;;4.85;3.92;;;;;;;31.80;30.74;94380.63;5051005;28;20387;-45
2023/08/31 08:47:27;;;;;;;6.75;4.30;;;;;;;31.65;31.64;94376.25;5049625;28;20260;-45
2023/08/31 08:49:55;;;;;;;6.15;4.38;;;;;;;31.44;31.89;94365.84;5050675;28;20278;-44
2023/08/31 08:52:23;;;;;;;4.82;3.78;;;;;;;31.35;32.00;94375.44;5051145;28;20191;-46
2023/08/31 08:54:51;;;;;;;7.45;4.50;;;;;;;31.26;30.95;94361.19;5050804;28;20195;-45
2023/08/31 08:57:18;;;;;;;4.85;4.35;;;;;;;31.26;31.35;94373.59;5050988;28;20555;-45
2023/08/31 08:59:44;;;;;;;6.90;4.30;;;;;;;31.09;32.12;94381.91;5051142;28;20195;-43
2023/08/31 09:02:13;;;;;;;5.32;4.18;;;;;;;30.81;32.48;94380.75;5050505;28;20187;-44
2023/08/31 09:04:40;;;;;;;6.07;4.15;;;;;;;30.50;33.27;94372.94;5050775;28;20195;-45
2023/08/31 09:07:07;;;;;;;8.25;4.60;;;;;;;30.59;33.35;94373.94;5050412;28;20187;-46
2023/08/31 09:09:49;;;;;;;7.22;4.25;;;;;;;30.65;33.49;94364.94;5050323;28;20272;-45
2023/08/31 09:12:15;;;;;;;9.02;3.75;;;;;;;30.84;33.69;94372.28;5050957;28;20183;-46
2023/08/31 09:14:43;;;;;;;6.85;3.72;;;;;;;30.80;33.95;94365.97;5050193;28;20206;-47
2023/08/31 09:17:09;;;;;;;6.82;3.95;;;;;;;30.58;34.54;94367.09;5050151;28;20191;-45
2023/08/31 09:19:37;;;;;;;5.65;3.97;;;;;;;30.47;34.76;94365.56;5050425;28;20194;-45
2023/08/31 09:22:04;;;;;;;6.18;4.25;;;;;;;30.56;34.96;94374.47;5050284;28;20325;-44
2023/08/31 09:24:41;;;;;;;4.03;3.58;;;;;;;30.63;34.71;94380.28;5049981;28;20726;-43
2023/08/31 09:27:08;;;;;;;5.32;3.83;;;;;;;30.64;34.59;94371.28;5050009;28;20674;-44
2023/08/31 09:29:47;;;;;;;5.80;4.07;;;;;;;30.65;34.49;94361.50;5049529;28;20716;-44
2023/08/31 09:32:17;;;;;;;8.10;4.07;;;;;;;30.66;34.83;94371.03;5050087;28;20277;-43
2023/08/31 09:34:46;;;;;;;6.78;4.70;;;;;;;30.67;35.26;94377.88;5050109;28;20533;-44
2023/08/31 09:37:13;;;;;;;5.53;3.63;;;;;;;30.76;34.85;94373.63;5050056;28;20578;-44
2023/08/31 09:39:40;;;;;;;5.15;4.20;;;;;;;30.72;34.82;94370.75;5049590;28;20199;-44
2023/08/31 09:42:07;;;;;;;6.85;3.85;;;;;;;30.50;35.24;94370.28;5049962;28;20183;-45
2023/08/31 09:44:34;;;;;;;6.55;3.95;;;;;;;30.35;36.31;94368.47;5049760;28;20194;-43
2023/08/31 09:47:03;;;;;;;5.32;4.13;;;;;;;30.24;36.27;94366.97;5049684;28;20202;-45
2023/08/31 09:49:30;;;;;;;6.97;4.07;;;;;;;30.23;34.68;94362.75;5049620;28;20670;-45
2023/08/31 09:52:03;;;;;;;5.18;4.28;;;;;;;30.18;34.46;94360.09;5049949;28;20191;-44
2023/08/31 09:54:30;;;;;;;5.22;3.83;;;;;;;30.22;34.43;94364.59;5049588;28;20282;-46
2023/08/31 09:57:01;;;;;;;5.05;4.00;;;;;;;30.25;34.60;94379.09;5049710;28;20191;-45
2023/08/31 09:59:28;;;;;;;6.82;4.65;;;;;;;30.17;34.33;94372.50;5049782;28;20190;-45
2023/08/31 10:01:56;;;;;;;8.32;4.43;;;;;;;30.28;33.46;94375.13;5049578;28;20280;-44
2023/08/31 10:04:23;;;;;;;4.78;4.03;;;;;;;30.21;32.91;94368.28;5049460;28;20183;-45
2023/08/31 10:06:52;;;;;;;5.43;4.38;;;;;;;29.91;33.15;94340.09;5049695;28;20619;-44
2023/08/31 10:09:20;;;;;;;8.73;4.50;;;;;;;30.05;33.68;94368.53;5049370;28;20233;-45
2023/08/31 10:11:47;;;;;;;5.10;4.25;;;;;;;30.12;33.97;94354.03;5049483;28;20651;-45
2023/08/31 10:14:16;;;;;;;5.15;4.00;;;;;;;30.24;33.73;94359.81;5049554;28;20222;-44
2023/08/31 10:16:45;;;;;;;5.63;4.60;;;;;;;30.35;33.17;94357.16;5049459;28;20179;-44
2023/08/31 10:19:12;;;;;;;7.32;4.72;;;;;;;30.45;32.36;94357.91;5049656;28;20267;-45
2023/08/31 10:21:44;;;;;;;5.75;4.88;;;;;;;30.55;32.55;94357.06;5049227;28;20237;-45
2023/08/31 10:24:10;;;;;;;6.72;4.53;;;;;;;30.66;32.06;94357.84;5049562;28;20675;-44
2023/08/31 10:26:39;;;;;;;4.30;3.88;;;;;;;30.64;32.40;94367.84;5049366;28;20187;-46
2023/08/31 10:29:06;;;;;;;8.32;4.70;;;;;;;30.48;32.77;94352.09;5049399;28;20594;-44
2023/08/31 10:31:34;;;;;;;7.05;4.28;;;;;;;30.40;33.25;94365.06;5049194;28;20190;-45
2023/08/31 10:34:03;;;;;;;4.47;4.00;;;;;;;30.37;33.30;94371.66;5049547;28;20202;-44
2023/08/31 10:36:38;;;;;;;5.93;3.78;;;;;;;30.39;33.36;94374.81;5049031;28;20563;-46
2023/08/31 10:39:13;;;;;;;4.70;3.72;;;;;;;30.40;33.40;94370.34;5049042;28;20194;-45
2023/08/31 10:41:41;;;;;;;3.95;3.45;;;;;;;30.33;33.00;94375.09;5049099;28;20248;-44
2023/08/31 10:44:22;;;;;;;5.13;3.25;;;;;;;30.30;33.52;94379.06;5049292;28;20198;-45
2023/08/31 10:46:50;;;;;;;5.78;4.22;;;;;;;30.40;33.30;94375.63;5049575;28;20237;-43
2023/08/31 10:49:17;;;;;;;6.40;3.95;;;;;;;30.43;32.93;94367.16;5049585;28;20231;-46
2023/08/31 10:51:45;;;;;;;7.63;3.90;;;;;;;30.26;33.10;94349.00;5048907;28;20190;-45
2023/08/31 10:54:16;;;;;;;7.03;4.45;;;;;;;30.56;33.54;94376.34;5048919;28;20194;-46
2023/08/31 10:57:05;;;;;;;4.40;4.00;;;;;;;30.73;33.04;94361.75;5049134;28;20202;-45
2023/08/31 10:59:50;;;;;;;5.47;3.63;;;;;;;30.98;32.71;94366.13;5049151;28;20207;-44
2023/08/31 11:02:31;;;;;;;5.53;3.92;;;;;;;31.04;32.49;94381.94;5049167;28;20651;-42
2023/08/31 11:05:03;;;;;;;6.63;4.53;;;;;;;30.89;32.97;94375.69;5048885;28;20191;-45
2023/08/31 11:07:30;;;;;;;5.20;3.92;;;;;;;30.78;33.68;94382.06;5049183;28;20231;-44
2023/08/31 11:10:09;;;;;;;7.40;4.07;;;;;;;30.63;34.03;94377.63;5050233;28;20300;-45
2023/08/31 11:12:37;;;;;;;6.30;4.53;;;;;;;30.45;34.20;94388.78;5052770;28;20753;-44
2023/08/31 11:15:05;;;;;;;5.28;3.92;;;;;;;30.34;34.43;94390.66;5052506;28;20187;-44
2023/08/31 11:17:32;;;;;;;5.82;3.85;;;;;;;30.36;34.35;94382.50;5052600;28;20674;-44
2023/08/31 11:19:59;;;;;;;8.82;4.47;;;;;;;30.18;34.14;94394.38;5052407;28;20264;-43
2023/08/31 11:22:26;;;;;;;5.10;3.83;;;;;;;30.06;34.71;94388.59;5052751;28;20588;-44
2023/08/31 11:24:53;;;;;;;6.60;3.78;;;;;;;29.90;35.42;94383.34;5052226;28;20601;-44
2023/08/31 11:27:21;;;;;;;5.43;3.50;;;;;;;29.89;34.87;94378.34;5052408;28;20195;-45
2023/08/31 11:29:49;;;;;;;4.60;3.83;;;;;;;29.80;35.35;94375.47;5051973;28;20300;-44
2023/08/31 11:32:16;;;;;;;7.47;3.33;;;;;;;29.88;35.36;94387.28;5052330;28;20199;-45
2023/08/31 11:34:45;;;;;;;5.65;3.33;;;;;;;29.97;34.48;94388.34;5052282;28;20190;-46
2023/08/31 11:37:15;;;;;;;6.25;3.35;;;;;;;29.93;34.64;94385.47;5051901;28;20202;-44
2023/08/31 11:39:42;;;;;;;3.67;2.90;;;;;;;29.98;34.92;94390.72;5052108;28;20294;-44